Home > Products > Valid Products > TAF

000
FTUS43 KEAX 212300
TAFMKC
TAF
KMKC 212322Z 2200/2224 01005KT P6SM SKC
     FM221300 VRB06KT P6SM SCT200=



000
FTUS43 KEAX 212300
TAFMCI
TAF
KMCI 212322Z 2200/2224 35005KT P6SM SKC
     FM221300 VRB06KT P6SM SCT200=



000
FTUS43 KEAX 212300
TAFSTJ
TAF
KSTJ 212322Z 2200/2224 35005KT P6SM SKC
     FM220600 00000KT P6SM SKC
      TEMPO 2209/2213 2SM BR SCT008
     FM221300 VRB06KT P6SM SCT200=



000
FTUS43 KEAX 211700
TAFMKC
TAF
KMKC 211720Z 2118/2218 35011G18KT P6SM FEW150
     FM220000 02004KT P6SM SKC
     FM221100 VRB02KT P6SM SKC=



000
FTUS43 KEAX 211700
TAFSTJ
TAF
KSTJ 211720Z 2118/2218 34013G20KT P6SM FEW150
     FM220000 01003KT P6SM SKC
     FM220900 VRB02KT P6SM SKC=



000
FTUS43 KEAX 211700
TAFMCI
TAF
KMCI 211720Z 2118/2218 34012G19KT P6SM FEW150
     FM220000 01005KT P6SM SKC
     FM221100 VRB04KT P6SM SKC=



000
FTUS43 KEAX 211100
TAFSTJ
TAF
KSTJ 211122Z 2112/2212 00000KT P6SM SKC
     FM211700 34012G19KT P6SM SKC
     FM220000 VRB03KT P6SM SKC=



000
FTUS43 KEAX 211100
TAFMCI
TAF
KMCI 211122Z 2112/2212 32003KT P6SM SKC
     FM211700 34012G19KT P6SM SKC
     FM220000 VRB04KT P6SM SKC=



000
FTUS43 KEAX 211100
TAFMKC
TAF
KMKC 211122Z 2112/2212 00000KT P6SM SKC
     FM211800 35011G18KT P6SM SKC
     FM220000 VRB03KT P6SM SKC=



000
FTUS43 KEAX 210500
TAFMCI
TAF
KMCI 210520Z 2106/2206 33006KT P6SM SKC
     FM211700 34012G19KT P6SM SKC
     FM220000 VRB04KT P6SM SKC=



000
FTUS43 KEAX 210500
TAFSTJ
TAF
KSTJ 210520Z 2106/2206 33006KT P6SM SKC
     FM211700 34012G19KT P6SM SKC
     FM220000 VRB03KT P6SM SKC=



000
FTUS43 KEAX 210500
TAFMKC
TAF
KMKC 210520Z 2106/2206 34005KT P6SM SKC
     FM211800 35011G18KT P6SM SKC
     FM220000 VRB03KT P6SM SKC=



000
FTUS43 KEAX 202300
TAFMKC
TAF
KMKC 202320Z 2100/2124 25005KT P6SM SCT040
     FM210600 34005KT P6SM SKC
     FM211800 35011G18KT P6SM SKC=



000
FTUS43 KEAX 202300
TAFSTJ
TAF
KSTJ 202320Z 2100/2124 28006KT P6SM SCT040
     FM210400 33006KT P6SM SKC
     FM211600 34011G18KT P6SM SKC=



000
FTUS43 KEAX 202300
TAFMCI
TAF
KMCI 202320Z 2100/2124 25006KT P6SM SCT040
     FM210500 33008KT P6SM SKC
     FM211800 34012G19KT P6SM SKC=



000
FTUS43 KEAX 202100 AAA
TAFMKC
TAF AMD
KMKC 202134Z 2022/2118 25007KT P6SM VCTS BKN040CB
     FM210400 30007KT P6SM SCT050=



000
FTUS43 KEAX 202100 AAA
TAFSTJ
TAF AMD
KSTJ 202134Z 2022/2118 28009KT P6SM VCTS BKN040CB
     FM210100 32005KT P6SM SCT050=



000
FTUS43 KEAX 202100 AAA
TAFMCI
TAF AMD
KMCI 202134Z 2022/2118 25006KT P6SM VCTS BKN040CB
     FM210200 30007KT P6SM SCT050=



000
FTUS43 KEAX 201700
TAFMCI
TAF
KMCI 201720Z 2018/2118 23009KT P6SM SCT070
     FM202000 26009KT P6SM VCTS BKN040CB
      TEMPO 2020/2024 4SM -TSRA
     FM210300 30007KT P6SM SCT050=



000
FTUS43 KEAX 201700
TAFMKC
TAF
KMKC 201720Z 2018/2118 23009KT P6SM SCT070
     FM202200 26009KT P6SM VCTS BKN040CB
      TEMPO 2022/2102 4SM -TSRA
     FM210500 30007KT P6SM SCT050=



000
FTUS43 KEAX 201700
TAFSTJ
TAF
KSTJ 201720Z 2018/2118 23009KT P6SM SCT070
     FM201900 26009KT P6SM VCTS BKN040CB
      TEMPO 2019/2023 4SM -TSRA
     FM210200 30007KT P6SM SCT050=



000
FTUS43 KEAX 201400 AAA
TAFSTJ
TAF AMD
KSTJ 201411Z 2014/2112 19008KT 3SM BR SCT025 BKN070
     FM201600 22010KT P6SM BKN070
     FM202000 30007KT P6SM VCTS BKN050CB
      TEMPO 2021/2101 -TSRA
     FM210400 31005KT P6SM SCT050=



000
FTUS43 KEAX 201100
TAFSTJ
TAF
KSTJ 201120Z 2012/2112 00000KT 5SM BR SKC
     FM201400 22010KT P6SM SCT050
     FM202000 30007KT P6SM VCTS BKN050CB
      TEMPO 2022/2102 -TSRA
     FM210400 31005KT P6SM SCT050=



000
FTUS43 KEAX 201100
TAFMKC
TAF
KMKC 201120Z 2012/2112 21010KT 6SM BR SKC
     FM201400 24010KT P6SM SCT050
     FM202300 27007KT P6SM VCTS BKN050CB
      TEMPO 2023/2103 -TSRA=



000
FTUS43 KEAX 201100
TAFMCI
TAF
KMCI 201120Z 2012/2112 21010KT 4SM BR SKC
     FM201400 27010KT P6SM FEW015 SCT050
     FM202300 29007KT P6SM VCTS BKN050CB
      TEMPO 2023/2103 -TSRA=



000
FTUS43 KEAX 201000 AAC
TAFSTJ
TAF AMD
KSTJ 201044Z 2011/2106 19009KT 5SM BR SKC
     FM201400 22010KT P6SM SCT050
     FM202200 30007KT P6SM VCTS BKN050CB
      TEMPO 2022/2102 -TSRA
     FM210400 31005KT P6SM SCT050=



000
FTUS43 KEAX 200900 AAB
TAFMKC
TAF AMD
KMKC 200938Z 2010/2106 22009KT 6SM HZ SKC
     FM201400 24010KT P6SM SCT050
     FM202300 27007KT P6SM VCTS BKN050CB
      TEMPO 2023/2103 -TSRA=



000
FTUS43 KEAX 200900 AAB
TAFSTJ
TAF AMD
KSTJ 200938Z 2010/2106 20008KT 6SM BR SKC
     FM201400 22010KT P6SM SCT050
     FM202200 30007KT P6SM VCTS BKN050CB
      TEMPO 2022/2102 -TSRA
     FM210400 31005KT P6SM SCT050=



000
FTUS43 KEAX 200600 AAA
TAFSTJ
TAF AMD
KSTJ 200625Z 2006/2106 19007KT P6SM SCT025
     FM200700 19008KT 4SM BR SKC
     FM201400 22010KT P6SM SCT050
     FM202200 30007KT P6SM VCTS BKN050CB
      TEMPO 2022/2102 -TSRA
     FM210400 31005KT P6SM SCT050=



000
FTUS43 KEAX 200600 AAA
TAFMKC
TAF AMD
KMKC 200625Z 2006/2106 20008KT P6SM SCT025
     FM200700 19008KT 5SM BR SKC
     FM201400 24010KT P6SM SCT050
     FM202300 27007KT P6SM VCTS BKN050CB
      TEMPO 2023/2103 -TSRA=



000
FTUS43 KEAX 200600 AAA
TAFMCI
TAF AMD
KMCI 200624Z 2006/2106 19007KT P6SM SCT150
     FM200700 19007KT 5SM BR SKC
     FM201500 27010KT P6SM FEW015 SCT050
     FM202300 29007KT P6SM VCTS BKN050CB
      TEMPO 2023/2103 -TSRA=



000
FTUS43 KEAX 200500
TAFMKC
TAF
KMKC 200520Z 2006/2106 20008KT P6SM SCT025
     FM200700 19008KT 5SM BR BKN005
     FM201400 24010KT P6SM SCT050
     FM202300 27007KT P6SM VCTS BKN050CB
      TEMPO 2023/2103 -TSRA=



000
FTUS43 KEAX 200500
TAFSTJ
TAF
KSTJ 200520Z 2006/2106 19007KT P6SM SCT025
     FM200700 19008KT 4SM BR BKN005
     FM201400 22010KT P6SM SCT050
     FM202200 30007KT P6SM VCTS BKN050CB
      TEMPO 2022/2102 -TSRA
     FM210400 31005KT P6SM SCT050=



000
FTUS43 KEAX 200500
TAFMCI
TAF
KMCI 200520Z 2006/2106 19007KT P6SM SCT150
     FM200700 19007KT 5SM BR BKN005
     FM201500 27010KT P6SM FEW015 SCT050
     FM202300 29007KT P6SM VCTS BKN050CB
      TEMPO 2023/2103 -TSRA=



000
FTUS43 KEAX 192300
TAFSTJ
TAF
KSTJ 192328Z 2000/2024 17009KT P6SM SCT025
     FM200700 19008KT 3SM BR BKN004
     FM201400 22010KT P6SM SCT050
     FM202200 29007KT P6SM VCTS BKN050CB=



000
FTUS43 KEAX 192300
TAFMCI
TAF
KMCI 192328Z 2000/2024 17009KT P6SM SCT025
     FM200500 19008KT 4SM BR BKN004
     FM201400 22010KT P6SM SCT050
     FM202300 29007KT P6SM VCTS BKN050CB=



000
FTUS43 KEAX 192300
TAFMKC
TAF
KMKC 192328Z 2000/2024 17009KT P6SM SCT025
     FM200500 19008KT 4SM BR BKN004
     FM201400 22010KT P6SM SCT050
     FM202300 29007KT P6SM VCTS BKN050CB=



000
FTUS43 KEAX 192100 AAA
TAFMCI
TAF AMD
KMCI 192108Z 1921/2018 16010KT P6SM BKN015
     FM192230 17010KT P6SM BKN023
     FM200000 17010KT P6SM SCT023
     FM200500 19008KT 4SM BR BKN004
     FM201400 22010KT P6SM SCT050=



000
FTUS43 KEAX 192100 AAA
TAFMKC
TAF AMD
KMKC 192102Z 1921/2018 17007KT P6SM BKN025
     FM200000 18007KT P6SM SCT025
     FM200600 19007KT 5SM BR BKN008
     FM201400 22008KT P6SM SCT050=



000
FTUS43 KEAX 191700
TAFMCI
TAF
KMCI 191727Z 1918/2018 16008KT 5SM BR OVC005
     FM192000 17010KT P6SM OVC015
     FM192200 17010KT P6SM SCT025
     FM200500 19008KT 4SM BR BKN004
     FM201400 22010KT P6SM SCT050=



000
FTUS43 KEAX 191700
TAFMKC
TAF
KMKC 191727Z 1918/2018 17007KT P6SM OVC013
      TEMPO 1918/1919 6SM HZ
     FM192200 18007KT P6SM SCT025
     FM200600 19007KT 5SM BR BKN008
     FM201400 22008KT P6SM SCT050=



000
FTUS43 KEAX 191700
TAFSTJ
TAF
KSTJ 191727Z 1918/2018 17011KT P6SM OVC012
     FM192200 18008KT P6SM SCT025
     FM200700 20005KT 3SM BR BKN004
     FM201400 23008KT P6SM SCT050=



000
FTUS43 KEAX 191600 AAB
TAFSTJ
TAF AMD
KSTJ 191609Z 1916/2012 17008KT P6SM OVC008
     FM191800 18008KT P6SM OVC012
     FM192200 18008KT P6SM SCT025=



000
FTUS43 KEAX 191600 AAB
TAFMKC
TAF AMD
KMKC 191608Z 1916/2012 18006KT 5SM BR OVC007
     FM191800 18007KT P6SM OVC009
     FM191900 18008KT P6SM OVC013
     FM192200 18008KT P6SM SCT025=



000
FTUS43 KEAX 191600 AAB
TAFMCI
TAF AMD
KMCI 191606Z 1916/2012 17008KT 5SM BR OVC004
     FM191800 17008KT P6SM OVC007
     FM192000 17011KT P6SM OVC015
     FM192200 17010KT P6SM SCT025=



000
FTUS43 KEAX 191400 AAA
TAFSTJ
TAF AMD
KSTJ 191427Z 1914/2012 16009KT 5SM BR OVC006
     FM191600 17010KT P6SM OVC008
     FM191800 18010KT P6SM BKN012
     FM192000 18010KT P6SM SCT025
      TEMPO 1920/1922 BKN025=



000
FTUS43 KEAX 191400 AAA
TAFMKC
TAF AMD
KMKC 191425Z 1914/2012 17006KT 5SM BR OVC006
     FM191600 17007KT P6SM OVC008
     FM191700 18008KT P6SM BKN012
     FM191900 18010KT P6SM BKN025
     FM192100 18010KT P6SM SCT025=



000
FTUS43 KEAX 191400 AAA
TAFMCI
TAF AMD
KMCI 191423Z 1914/2012 16010KT P6SM OVC007
     FM191700 17010KT P6SM BKN012
     FM191900 17011KT P6SM BKN025
     FM192100 17011KT P6SM SCT025=



000
FTUS43 KEAX 191100
TAFMCI
TAF
KMCI 191134Z 1912/2012 16009KT 6SM BR OVC004
     FM191400 15010KT P6SM BKN008
     FM191600 17011KT P6SM SCT025
      TEMPO 1917/1919 BKN025=



000
FTUS43 KEAX 191100
TAFMKC
TAF
KMKC 191134Z 1912/2012 16006KT P6SM OVC008
     FM191400 15008KT P6SM BKN012
     FM191600 18010KT P6SM SCT025
      TEMPO 1917/1919 BKN025=



000
FTUS43 KEAX 191100
TAFSTJ
TAF
KSTJ 191134Z 1912/2012 16007KT 5SM BR OVC005
     FM191400 14007KT P6SM BKN008
     FM191600 17011KT P6SM SCT025
      TEMPO 1917/1919 BKN025=



000
FTUS43 KEAX 191000 AAB
TAFMKC
TAF AMD
KMKC 191000Z 1910/2006 14007KT P6SM OVC007
     FM191500 15008KT P6SM OVC012
     FM191700 18010KT P6SM SCT025
      TEMPO 1917/1919 BKN025=



000
FTUS43 KEAX 191000 AAB
TAFSTJ
TAF AMD
KSTJ 191000Z 1910/2006 15005KT 5SM BR OVC005
     FM191500 14007KT P6SM OVC008
     FM191700 17011KT P6SM SCT025
      TEMPO 1917/1919 BKN025=



000
FTUS43 KEAX 190900 AAB
TAFMCI
TAF AMD
KMCI 190959Z 1910/2006 15010KT 5SM BR OVC003
     FM191500 15010KT P6SM OVC010
     FM191700 17011KT P6SM SCT025
      TEMPO 1917/1919 BKN025=



000
FTUS43 KEAX 190900 AAA
TAFSTJ
TAF AMD
KSTJ 190955Z 1910/2006 17006KT 6SM BR OVC005
     FM191500 14007KT P6SM OVC008
     FM191700 17011KT P6SM SCT025
      TEMPO 1917/1919 BKN025=



000
FTUS43 KEAX 190800 AAA
TAFMCI
TAF AMD
KMCI 190854Z 1909/2006 14008KT 6SM BR OVC003
     FM191000 13006KT 2SM BR BKN003
     FM191500 15010KT P6SM OVC010
     FM191700 17011KT P6SM SCT025
      TEMPO 1917/1919 BKN025=



000
FTUS43 KEAX 190700 AAA
TAFMKC
TAF AMD
KMKC 190759Z 1908/2006 09003KT P6SM BKN007
     FM191000 13006KT 3SM BR BKN006
     FM191500 15008KT P6SM OVC012
     FM191700 18010KT P6SM SCT025
      TEMPO 1917/1919 BKN025=



000
FTUS43 KEAX 190500
TAFMKC
TAF
KMKC 190520Z 1906/2006 10004KT P6SM SKC
     FM190800 11004KT 5SM BR SCT006
     FM191000 13006KT 3SM BR BKN006
     FM191500 15008KT P6SM OVC012
     FM191700 18010KT P6SM SCT025
      TEMPO 1917/1919 BKN025=



000
FTUS43 KEAX 190500
TAFSTJ
TAF
KSTJ 190520Z 1906/2006 13003KT P6SM SKC
     FM190700 13004KT 4SM BR FEW005
      TEMPO 1908/1910 1SM BR SCT004
     FM191000 13005KT 2SM BR OVC004
      TEMPO 1911/1913 1/4SM FG OVC001
     FM191500 14007KT P6SM OVC008
     FM191700 17011KT P6SM SCT025
      TEMPO 1917/1919 BKN025=



000
FTUS43 KEAX 190500
TAFMCI
TAF
KMCI 190520Z 1906/2006 12006KT P6SM SKC
     FM190800 13006KT 4SM BR SCT005
     FM191000 13006KT 2SM BR BKN004
     FM191500 15010KT P6SM OVC010
     FM191700 17011KT P6SM SCT025
      TEMPO 1917/1919 BKN025=



    US Dept of Commerce
    National Oceanic and Atmospheric Administration
    National Weather Service
    1325 East West Highway
    Silver Spring, MD 20910
    Page Author: NWS Internet Services Team
Disclaimer
Information Quality
Credits
Glossary
Privacy Policy
Freedom of Information Act (FOIA)
About Us
Career Opportunities